createdAt,value
2018-11-06T00:01:45.628Z,23.13
2018-11-06T00:04:25.602Z,22.97
2018-11-06T00:07:01.551Z,24.07
2018-11-06T00:09:37.592Z,25.97
2018-11-06T00:12:13.518Z,23.97
2018-11-06T00:14:49.575Z,22.77
2018-11-06T00:17:25.620Z,23.10
2018-11-06T00:20:01.498Z,22.57
2018-11-06T00:22:37.655Z,22.03
2018-11-06T00:25:14.657Z,23.53
2018-11-06T00:27:50.493Z,23.03
2018-11-06T00:30:26.325Z,22.97
2018-11-06T00:33:02.142Z,22.67
2018-11-06T00:35:38.022Z,25.10
2018-11-06T00:38:13.871Z,25.43
2018-11-06T00:40:49.928Z,24.93
2018-11-06T00:43:25.885Z,26.73
2018-11-06T00:46:01.817Z,29.63
2018-11-06T00:48:37.792Z,27.80
2018-11-06T00:51:13.668Z,33.10
2018-11-06T00:53:49.903Z,33.27
2018-11-06T00:56:25.910Z,35.37
2018-11-06T00:59:01.978Z,34.20
2018-11-06T01:01:38.425Z,34.50
2018-11-06T01:04:15.115Z,35.30
2018-11-06T01:06:51.174Z,32.60
2018-11-06T01:09:27.181Z,30.83
2018-11-06T01:12:03.138Z,30.30
2018-11-06T01:14:39.117Z,35.23
2018-11-06T01:17:15.360Z,35.20
2018-11-06T01:19:51.149Z,34.83
2018-11-06T01:22:30.140Z,33.27
2018-11-06T01:25:06.791Z,32.33
2018-11-06T01:27:42.888Z,34.33
2018-11-06T01:30:20.105Z,34.93
2018-11-06T01:32:55.871Z,35.17
2018-11-06T01:35:31.702Z,34.80
2018-11-06T01:38:07.659Z,33.73
2018-11-06T01:40:43.514Z,34.23
2018-11-06T01:43:19.540Z,35.67
2018-11-06T01:45:56.419Z,33.80
2018-11-06T01:48:32.463Z,35.67
2018-11-06T01:51:08.301Z,32.63
2018-11-06T01:53:44.175Z,34.97
2018-11-06T01:56:20.176Z,34.90
2018-11-06T01:58:56.247Z,34.47
2018-11-06T02:01:32.110Z,33.40
2018-11-06T02:04:08.029Z,27.47
2018-11-06T02:06:44.375Z,27.77
2018-11-06T02:09:20.338Z,32.97
2018-11-06T02:11:56.112Z,31.60
2018-11-06T02:14:32.076Z,27.10
2018-11-06T02:17:08.091Z,22.10
2018-11-06T02:19:44.010Z,20.17
2018-11-06T02:22:19.961Z,23.40
2018-11-06T02:24:55.870Z,28.70
2018-11-06T02:27:31.795Z,35.93
2018-11-06T02:30:09.628Z,34.90
2018-11-06T02:32:46.572Z,35.90
2018-11-06T02:35:22.584Z,34.97
2018-11-06T02:37:58.390Z,32.40
2018-11-06T02:40:34.262Z,31.37
2018-11-06T02:43:10.238Z,32.83
2018-11-06T02:45:46.395Z,28.70
2018-11-06T02:48:22.297Z,30.13
2018-11-06T02:50:58.212Z,30.73
2018-11-06T02:53:34.072Z,30.40
2018-11-06T02:56:09.957Z,32.80
2018-11-06T02:58:45.913Z,31.17
2018-11-06T03:01:21.885Z,32.90
2018-11-06T03:03:57.915Z,34.23
2018-11-06T03:06:33.844Z,32.93
2018-11-06T03:09:09.915Z,34.70
2018-11-06T03:11:45.901Z,32.93
2018-11-06T03:14:21.783Z,33.97
2018-11-06T03:16:57.823Z,33.80
2018-11-06T03:19:33.993Z,34.47
2018-11-06T03:22:09.912Z,30.60
2018-11-06T03:24:45.695Z,30.73
2018-11-06T03:27:21.681Z,32.70
2018-11-06T03:29:57.715Z,32.27
2018-11-06T03:32:33.635Z,36.07
2018-11-06T03:35:11.005Z,43.13
2018-11-06T03:37:46.905Z,37.20
2018-11-06T03:40:22.884Z,40.70
2018-11-06T03:42:58.764Z,39.10
2018-11-06T03:45:34.642Z,42.30
2018-11-06T03:48:10.698Z,48.13
2018-11-06T03:50:46.677Z,51.77
2018-11-06T03:53:22.534Z,50.83
2018-11-06T03:55:58.389Z,47.87
2018-11-06T03:58:34.305Z,48.83
2018-11-06T04:01:10.304Z,46.13
2018-11-06T04:03:46.281Z,45.30
2018-11-06T04:06:22.361Z,47.83
2018-11-06T04:08:58.328Z,40.03
2018-11-06T04:11:34.189Z,37.90
2018-11-06T04:14:11.154Z,38.77
2018-11-06T04:16:47.003Z,40.90
2018-11-06T04:19:23.055Z,39.27
2018-11-06T04:21:58.914Z,36.00
2018-11-06T04:24:34.904Z,37.97
2018-11-06T04:27:10.809Z,39.60
2018-11-06T04:29:46.684Z,47.00
2018-11-06T04:32:22.580Z,48.30
2018-11-06T04:34:58.471Z,47.10
2018-11-06T04:37:34.469Z,47.03
2018-11-06T04:40:12.697Z,52.07
2018-11-06T04:42:48.720Z,53.60
2018-11-06T04:45:24.634Z,113.77
2018-11-06T04:48:00.520Z,64.47
2018-11-06T04:50:36.704Z,82.43
2018-11-06T04:53:12.533Z,56.20
2018-11-06T04:55:48.470Z,77.53
2018-11-06T04:58:24.311Z,54.37
2018-11-06T05:01:00.806Z,54.43
2018-11-06T05:03:41.456Z,48.70
2018-11-06T05:06:18.483Z,48.77
2018-11-06T05:08:54.438Z,52.53
2018-11-06T05:11:30.396Z,53.87
2018-11-06T05:14:06.798Z,56.73
2018-11-06T05:16:42.905Z,56.93
2018-11-06T05:19:22.587Z,58.97
2018-11-06T05:21:58.698Z,76.00
2018-11-06T05:24:37.121Z,81.53
2018-11-06T05:27:13.106Z,79.87
2018-11-06T05:29:49.176Z,76.47
2018-11-06T05:33:49.183Z,73.73
2018-11-06T05:36:27.269Z,115.13
2018-11-06T05:39:03.317Z,71.23
2018-11-06T05:41:39.514Z,56.17
2018-11-06T05:44:15.572Z,72.20
2018-11-06T05:46:51.484Z,70.37
2018-11-06T05:49:27.448Z,64.87
2018-11-06T05:52:03.536Z,66.23
2018-11-06T05:54:39.377Z,74.53
2018-11-06T05:57:15.204Z,64.63
2018-11-06T05:59:51.068Z,64.50
2018-11-06T06:02:26.933Z,66.67
2018-11-06T06:05:02.804Z,61.67
2018-11-06T06:07:38.701Z,61.97
2018-11-06T06:10:14.608Z,70.23
2018-11-06T06:12:50.518Z,69.17
2018-11-06T06:15:26.619Z,69.13
2018-11-06T06:18:02.600Z,77.53
2018-11-06T06:20:39.280Z,100.00
2018-11-06T06:23:15.062Z,103.77
2018-11-06T06:25:50.934Z,118.50
2018-11-06T06:28:26.764Z,68.03
2018-11-06T06:31:02.843Z,58.53
2018-11-06T06:33:38.713Z,58.17
2018-11-06T06:36:14.635Z,60.27
2018-11-06T06:38:50.741Z,63.97
2018-11-06T06:41:27.002Z,61.83
2018-11-06T06:44:03.122Z,62.67
2018-11-06T06:46:39.291Z,70.07
2018-11-06T06:49:20.399Z,67.77
2018-11-06T06:51:56.325Z,69.53
2018-11-06T06:54:32.451Z,61.67
2018-11-06T06:57:08.549Z,58.53
2018-11-06T06:59:44.797Z,60.83
2018-11-06T07:02:20.810Z,57.63
2018-11-06T07:04:56.833Z,50.20
2018-11-06T07:07:32.784Z,50.80
2018-11-06T07:10:11.193Z,49.50
2018-11-06T07:12:48.026Z,46.80
2018-11-06T07:15:24.017Z,49.47
2018-11-06T07:17:59.948Z,40.30
2018-11-06T07:20:35.845Z,42.57
2018-11-06T07:23:11.776Z,42.73
2018-11-06T07:25:47.519Z,44.50
2018-11-06T07:28:23.429Z,44.23
2018-11-06T07:31:03.454Z,46.60
2018-11-06T07:33:39.489Z,43.93
2018-11-06T07:36:15.351Z,43.53
2018-11-06T07:38:51.713Z,43.77
2018-11-06T07:41:27.705Z,36.23
2018-11-06T07:44:03.741Z,37.27
2018-11-06T07:46:39.812Z,32.50
2018-11-06T07:49:15.710Z,36.93
2018-11-06T07:51:51.770Z,33.90
2018-11-06T07:54:27.767Z,35.37
2018-11-06T07:57:03.570Z,30.20
2018-11-06T07:59:39.547Z,29.27
2018-11-06T08:02:17.287Z,32.10
2018-11-06T08:04:53.277Z,28.57
2018-11-06T08:07:29.297Z,33.47
2018-11-06T08:10:06.045Z,31.73
2018-11-06T08:12:45.154Z,33.77
2018-11-06T08:15:21.577Z,31.27
2018-11-06T08:17:57.412Z,29.03
2018-11-06T08:20:33.639Z,32.70
2018-11-06T08:23:09.713Z,30.63
2018-11-06T08:25:45.617Z,28.10
2018-11-06T08:28:21.581Z,27.67
2018-11-06T08:30:57.737Z,29.17
2018-11-06T08:33:33.638Z,29.00
2018-11-06T08:36:09.530Z,29.83
2018-11-06T08:38:50.759Z,26.27
2018-11-06T08:41:27.199Z,25.00
2018-11-06T08:44:03.056Z,24.03
2018-11-06T08:46:39.068Z,23.57
2018-11-06T08:49:15.000Z,17.30
2018-11-06T08:51:51.092Z,18.90
2018-11-06T08:54:27.327Z,18.37
2018-11-06T08:57:03.516Z,15.23
2018-11-06T08:59:34.421Z,21.27
2018-11-06T09:02:05.589Z,14.53
2018-11-06T09:04:42.746Z,15.47
2018-11-06T09:07:13.697Z,18.13
2018-11-06T09:09:44.755Z,21.57
2018-11-06T09:12:15.729Z,21.67
2018-11-06T09:14:46.681Z,22.57
2018-11-06T09:17:17.662Z,18.57
2018-11-06T09:19:48.540Z,18.70
2018-11-06T09:22:19.436Z,19.53
2018-11-06T09:24:50.316Z,21.67
2018-11-06T09:27:21.314Z,21.70
2018-11-06T09:29:52.226Z,22.23
2018-11-06T09:32:23.169Z,20.17
2018-11-06T09:34:54.093Z,19.90
2018-11-06T09:37:25.079Z,23.00
2018-11-06T09:39:55.948Z,21.70
2018-11-06T09:42:26.896Z,20.73
2018-11-06T09:46:27.010Z,20.77
2018-11-06T09:48:58.003Z,19.20
2018-11-06T09:51:28.903Z,18.77
2018-11-06T09:53:59.894Z,16.93
2018-11-06T09:56:30.857Z,17.90
2018-11-06T09:59:01.917Z,16.87
2018-11-06T10:01:32.885Z,16.77
2018-11-06T10:04:04.133Z,16.27
2018-11-06T10:06:35.118Z,14.43
2018-11-06T10:09:08.487Z,14.80
2018-11-06T10:11:40.729Z,10.97
2018-11-06T10:14:11.686Z,9.67
2018-11-06T10:16:42.587Z,12.03
2018-11-06T10:19:13.592Z,12.63
2018-11-06T10:21:44.540Z,11.80
2018-11-06T10:24:15.529Z,11.40
2018-11-06T10:26:51.855Z,10.80
2018-11-06T10:29:22.794Z,10.57
2018-11-06T10:31:53.763Z,8.77
2018-11-06T10:34:34.875Z,9.67
2018-11-06T10:37:08.986Z,8.43
2018-11-06T10:39:39.966Z,8.80
2018-11-06T10:42:11.032Z,8.57
2018-11-06T10:44:42.008Z,9.37
2018-11-06T10:47:12.900Z,9.10
2018-11-06T10:49:49.884Z,9.27
2018-11-06T10:52:21.059Z,8.83
2018-11-06T10:54:52.160Z,8.97
2018-11-06T10:57:23.060Z,8.50
2018-11-06T10:59:54.018Z,9.87
2018-11-06T11:02:30.441Z,10.00
2018-11-06T11:05:01.597Z,9.87
2018-11-06T11:07:32.557Z,8.43
2018-11-06T11:10:03.591Z,8.23
2018-11-06T11:12:34.608Z,8.97
2018-11-06T11:15:05.787Z,8.20
2018-11-06T11:17:36.700Z,8.77
2018-11-06T11:20:10.065Z,9.40
2018-11-06T11:22:41.628Z,8.10
2018-11-06T11:25:13.833Z,8.03
2018-11-06T11:27:45.652Z,8.00
2018-11-06T11:30:17.313Z,8.90
2018-11-06T11:32:48.903Z,8.17
2018-11-06T11:35:24.679Z,7.73
2018-11-06T11:37:55.632Z,9.13
2018-11-06T11:40:26.589Z,8.80
2018-11-06T11:42:57.503Z,7.93
2018-11-06T11:45:32.445Z,7.37
2018-11-06T11:48:03.406Z,7.17
2018-11-06T11:50:34.486Z,7.93
2018-11-06T11:53:05.545Z,8.73
2018-11-06T11:55:36.548Z,7.87
2018-11-06T11:58:07.685Z,7.00
2018-11-06T12:00:40.166Z,5.90
2018-11-06T12:03:11.127Z,6.47
2018-11-06T12:05:42.648Z,6.07
2018-11-06T12:08:13.549Z,6.10
2018-11-06T12:10:44.538Z,4.50
2018-11-06T12:13:15.446Z,5.97
2018-11-06T12:15:46.385Z,6.57
2018-11-06T12:18:17.342Z,5.57
2018-11-06T12:20:48.537Z,5.77
2018-11-06T12:23:19.505Z,6.03
2018-11-06T12:25:50.700Z,4.97
2018-11-06T12:28:21.670Z,6.17
2018-11-06T12:30:52.618Z,6.47
2018-11-06T12:33:23.769Z,5.93
2018-11-06T12:35:54.728Z,5.43
2018-11-06T12:38:25.618Z,4.70
2018-11-06T12:40:56.883Z,5.13
2018-11-06T12:43:33.028Z,5.63
2018-11-06T12:46:04.208Z,3.77
2018-11-06T12:48:35.125Z,3.10
2018-11-06T12:51:06.392Z,4.90
2018-11-06T12:53:37.364Z,3.73
2018-11-06T12:56:08.391Z,4.40
2018-11-06T12:58:39.499Z,3.30
2018-11-06T13:01:10.476Z,3.30
2018-11-06T13:03:41.383Z,3.33
2018-11-06T13:06:12.611Z,3.33
2018-11-06T13:08:48.348Z,3.53
2018-11-06T13:11:19.394Z,4.30
2018-11-06T13:13:54.726Z,5.40
2018-11-06T13:16:25.741Z,3.93
2018-11-06T13:18:56.845Z,4.10
2018-11-06T13:21:27.887Z,3.17
2018-11-06T13:23:58.776Z,3.93
2018-11-06T13:26:29.817Z,7.13
2018-11-06T13:29:05.745Z,10.60
2018-11-06T13:31:36.707Z,3.83
2018-11-06T13:34:07.748Z,7.00
2018-11-06T13:36:38.875Z,5.27
2018-11-06T13:39:11.681Z,6.13
2018-11-06T13:41:44.925Z,5.13
2018-11-06T13:44:16.269Z,4.10
2018-11-06T13:46:49.732Z,13.43
2018-11-06T13:49:24.741Z,5.97
2018-11-06T13:52:00.070Z,4.50
2018-11-06T13:54:31.028Z,7.47
2018-11-06T13:57:06.056Z,11.63
2018-11-06T13:59:41.458Z,5.20
2018-11-06T14:02:17.008Z,4.03
2018-11-06T14:04:47.949Z,8.83
2018-11-06T14:07:19.101Z,8.00
2018-11-06T14:09:50.046Z,6.93
2018-11-06T14:12:21.016Z,6.33
2018-11-06T14:14:52.002Z,6.57
2018-11-06T14:17:23.921Z,10.00
2018-11-06T14:19:54.894Z,10.60
2018-11-06T14:22:26.955Z,9.13
2018-11-06T14:24:57.960Z,22.47
2018-11-06T14:27:29.118Z,16.70
2018-11-06T14:30:00.205Z,17.40
2018-11-06T14:32:31.193Z,15.17
2018-11-06T14:35:02.316Z,25.93
2018-11-06T14:37:33.374Z,28.13
2018-11-06T14:40:04.410Z,37.27
2018-11-06T14:42:35.503Z,39.90
2018-11-06T14:45:08.860Z,36.77
2018-11-06T14:47:40.003Z,43.37
2018-11-06T14:50:17.009Z,33.77
2018-11-06T14:52:48.342Z,43.77
2018-11-06T14:55:19.338Z,31.53
2018-11-06T14:57:51.242Z,37.67
2018-11-06T15:00:22.700Z,33.17
2018-11-06T15:02:54.446Z,34.87
2018-11-06T15:05:33.462Z,35.00
2018-11-06T15:08:04.927Z,33.30
2018-11-06T15:10:35.854Z,59.00
2018-11-06T15:13:06.988Z,45.43
2018-11-06T15:15:37.940Z,61.17
2018-11-06T15:18:08.935Z,133.63
2018-11-06T15:20:39.992Z,115.47
2018-11-06T15:23:11.237Z,113.40
2018-11-06T15:25:43.014Z,106.97
2018-11-06T15:28:14.428Z,88.73
2018-11-06T15:30:45.337Z,100.97
2018-11-06T15:33:16.364Z,105.80
2018-11-06T15:35:51.390Z,69.20
2018-11-06T15:38:22.460Z,66.40
2018-11-06T15:40:53.499Z,49.73
2018-11-06T15:43:24.693Z,45.37
2018-11-06T15:45:55.646Z,58.87
2018-11-06T15:48:26.675Z,30.57
2018-11-06T15:50:57.774Z,89.57
2018-11-06T15:53:28.789Z,37.40
2018-11-06T15:56:00.026Z,38.90
2018-11-06T15:58:31.020Z,46.20
2018-11-06T16:01:04.768Z,77.10
2018-11-06T16:03:36.061Z,44.33
2018-11-06T16:06:09.685Z,79.00
2018-11-06T16:08:47.072Z,49.67
2018-11-06T16:11:18.069Z,62.63
2018-11-06T16:13:49.031Z,29.30
2018-11-06T16:16:20.958Z,136.00
2018-11-06T16:18:52.086Z,48.03
2018-11-06T16:21:22.990Z,49.67
2018-11-06T16:23:54.044Z,48.77
2018-11-06T16:26:27.146Z,49.47
2018-11-06T16:28:58.183Z,98.53
2018-11-06T16:31:29.175Z,86.70
2018-11-06T16:34:00.535Z,263.40
2018-11-06T16:36:31.608Z,102.37
2018-11-06T16:39:03.450Z,72.33
2018-11-06T16:41:35.733Z,54.80
2018-11-06T16:44:06.937Z,62.67
2018-11-06T16:46:37.970Z,41.67
2018-11-06T16:49:09.125Z,82.93
2018-11-06T16:51:40.067Z,59.40
2018-11-06T16:54:11.109Z,93.17
2018-11-06T16:56:42.438Z,102.07
2018-11-06T16:59:13.876Z,93.30
2018-11-06T17:01:44.877Z,122.40
2018-11-06T17:04:15.883Z,92.87
2018-11-06T17:06:49.179Z,75.37
2018-11-06T17:09:21.339Z,70.87
2018-11-06T17:11:52.276Z,64.10
2018-11-06T17:14:23.223Z,61.20
2018-11-06T17:16:54.206Z,67.03
2018-11-06T17:19:25.244Z,60.03
2018-11-06T17:21:56.202Z,89.57
2018-11-06T17:24:27.529Z,48.37
2018-11-06T17:26:58.453Z,86.70
2018-11-06T17:29:29.408Z,85.73
2018-11-06T17:32:00.616Z,63.00
2018-11-06T17:34:31.615Z,73.43
2018-11-06T17:37:02.508Z,48.53
2018-11-06T17:39:33.951Z,54.07
2018-11-06T17:42:05.507Z,93.53
2018-11-06T17:44:42.106Z,106.90
2018-11-06T17:47:16.342Z,87.13
2018-11-06T17:49:52.764Z,59.90
2018-11-06T17:52:23.744Z,49.67
2018-11-06T17:54:54.860Z,19.17
2018-11-06T17:57:26.283Z,39.47
2018-11-06T17:59:57.264Z,38.90
2018-11-06T18:02:28.241Z,76.03
2018-11-06T18:05:00.166Z,75.77
2018-11-06T18:07:31.202Z,72.00
2018-11-06T18:10:02.368Z,232.23
2018-11-06T18:12:37.567Z,73.37
2018-11-06T18:15:08.594Z,66.37
2018-11-06T18:17:40.647Z,117.90
2018-11-06T18:20:13.481Z,87.97
2018-11-06T18:22:45.084Z,111.97
2018-11-06T18:25:16.620Z,114.63
2018-11-06T18:27:47.765Z,97.37
2018-11-06T18:30:19.481Z,86.97
2018-11-06T18:32:50.636Z,88.13
2018-11-06T18:35:21.728Z,60.00
2018-11-06T18:37:52.695Z,51.97
2018-11-06T18:40:23.753Z,48.27
2018-11-06T18:42:54.784Z,45.03
2018-11-06T18:45:25.823Z,57.17
2018-11-06T18:47:57.478Z,50.90
2018-11-06T18:50:28.678Z,39.47
2018-11-06T18:53:04.245Z,51.20
2018-11-06T18:55:35.949Z,56.47
2018-11-06T18:58:07.083Z,54.73
2018-11-06T19:00:38.351Z,65.33
2018-11-06T19:03:09.433Z,58.23
2018-11-06T19:05:40.930Z,52.97
2018-11-06T19:08:11.866Z,55.27
2018-11-06T19:10:44.787Z,50.77
2018-11-06T19:13:15.935Z,39.47
2018-11-06T19:15:47.326Z,62.07
2018-11-06T19:18:19.940Z,48.80
2018-11-06T19:20:51.320Z,50.67
2018-11-06T19:23:23.192Z,42.47
2018-11-06T19:25:54.699Z,43.93
2018-11-06T19:28:25.781Z,54.20
2018-11-06T19:30:56.834Z,34.67
2018-11-06T19:33:28.003Z,38.40
2018-11-06T19:35:59.351Z,44.47
2018-11-06T19:38:30.737Z,74.07
2018-11-06T19:41:01.784Z,55.33
2018-11-06T19:43:32.785Z,65.80
2018-11-06T19:46:09.077Z,55.70
2018-11-06T19:48:40.182Z,59.50
2018-11-06T19:51:11.320Z,59.33
2018-11-06T19:53:42.670Z,56.60
2018-11-06T19:56:14.415Z,50.47
2018-11-06T19:58:45.378Z,57.03
2018-11-06T20:01:16.564Z,48.87
2018-11-06T20:03:47.766Z,39.70
2018-11-06T20:06:18.871Z,35.70
2018-11-06T20:09:07.948Z,46.37
2018-11-06T20:11:39.735Z,37.57
2018-11-06T20:14:11.101Z,32.97
2018-11-06T20:16:42.468Z,40.20
2018-11-06T20:19:13.468Z,39.50
2018-11-06T20:21:44.411Z,47.57
2018-11-06T20:24:15.497Z,42.43
2018-11-06T20:26:46.724Z,40.50
2018-11-06T20:29:18.255Z,36.43
2018-11-06T20:31:49.802Z,63.80
2018-11-06T20:34:20.742Z,52.40
2018-11-06T20:36:52.358Z,40.80
2018-11-06T20:39:23.252Z,36.70
2018-11-06T20:41:54.302Z,34.87
2018-11-06T20:44:25.326Z,38.03
2018-11-06T20:46:56.305Z,35.17
2018-11-06T20:49:27.363Z,25.23
2018-11-06T20:51:58.365Z,31.77
2018-11-06T20:54:29.258Z,41.77
2018-11-06T20:57:00.741Z,27.23
2018-11-06T20:59:36.706Z,20.97
2018-11-06T21:02:12.818Z,31.80
2018-11-06T21:04:49.652Z,28.40
2018-11-06T21:07:26.232Z,26.80
2018-11-06T21:10:03.028Z,31.30
2018-11-06T21:12:39.507Z,28.70
2018-11-06T21:15:15.400Z,32.40
2018-11-06T21:17:54.831Z,31.47
2018-11-06T21:20:31.108Z,27.83
2018-11-06T21:23:07.149Z,42.53
2018-11-06T21:25:43.530Z,33.67
2018-11-06T21:28:19.609Z,24.60
2018-11-06T21:30:55.644Z,28.37
2018-11-06T21:33:31.680Z,27.73
2018-11-06T21:36:07.758Z,25.40
2018-11-06T21:38:43.741Z,24.77
2018-11-06T21:41:19.572Z,25.90
2018-11-06T21:43:55.523Z,25.17
2018-11-06T21:46:31.477Z,28.47
2018-11-06T21:49:07.507Z,28.07
2018-11-06T21:51:43.556Z,37.30
2018-11-06T21:54:19.483Z,30.87
2018-11-06T21:56:55.487Z,34.10
2018-11-06T21:59:31.943Z,31.67
2018-11-06T22:02:08.372Z,28.07
2018-11-06T22:04:44.220Z,30.37
2018-11-06T22:07:20.170Z,35.20
2018-11-06T22:09:56.103Z,33.20
2018-11-06T22:12:31.983Z,31.57
2018-11-06T22:15:09.721Z,34.67
2018-11-06T22:17:45.548Z,33.97
2018-11-06T22:20:21.849Z,48.57
2018-11-06T22:22:57.720Z,23.13
2018-11-06T22:25:38.814Z,24.97
2018-11-06T22:28:14.713Z,22.10
2018-11-06T22:30:50.903Z,47.70
2018-11-06T22:33:27.102Z,35.87
2018-11-06T22:36:03.351Z,25.97
2018-11-06T22:38:39.188Z,27.37
2018-11-06T22:41:15.344Z,29.83
2018-11-06T22:43:51.166Z,27.77
2018-11-06T22:46:27.191Z,32.97
2018-11-06T22:49:03.335Z,24.20
2018-11-06T22:51:39.400Z,31.77
2018-11-06T22:54:15.226Z,52.87
2018-11-06T22:56:51.267Z,35.13
2018-11-06T22:59:27.577Z,28.03
2018-11-06T23:02:03.600Z,27.63
2018-11-06T23:04:39.648Z,29.13
2018-11-06T23:07:20.576Z,52.93
2018-11-06T23:09:56.753Z,51.90
2018-11-06T23:12:33.293Z,46.67
2018-11-06T23:15:09.368Z,31.17
2018-11-06T23:17:46.241Z,29.43
2018-11-06T23:20:22.408Z,30.90
2018-11-06T23:22:58.462Z,30.23
2018-11-06T23:25:34.305Z,35.13
2018-11-06T23:28:10.533Z,26.23
2018-11-06T23:30:46.373Z,23.53
2018-11-06T23:33:22.442Z,22.20
2018-11-06T23:35:58.636Z,22.07
2018-11-06T23:38:34.620Z,23.43
2018-11-06T23:41:10.491Z,22.70
2018-11-06T23:43:46.543Z,20.87
2018-11-06T23:46:22.516Z,21.17
2018-11-06T23:48:58.371Z,19.90
2018-11-06T23:51:34.188Z,18.07
2018-11-06T23:54:10.044Z,16.90
2018-11-06T23:56:45.909Z,16.53
2018-11-06T23:59:21.957Z,16.87
